KDRI/DRI METAR and TAF weather

Enter ICAO airport designator
Station Type Date Time Source
KDRI METAR 2020/07/12 07:15 UTC NOAA

KDRI 120715Z AUTO 00000KT 10SM CLR 26/26 A2999 RMK AO2 T02630255


Station Type Date Time Source
KDRI Decoded METAR 2020/07/12 07:15 UTC NOAA

De Ridder, Beauregard Parish Airport, LA, United States (KDRI) 30-49-54N 093-20-23W
Jul 12, 2020 - 03:15 AM EDT / 2020.07.12 0715 UTC
Wind: Calm:0
Visibility: 10 mile(s):0
Sky conditions: clear
Temperature: 79.3 F (26.3 C)
Dew Point: 77.9 F (25.5 C)
Relative Humidity: 95%
Pressure (altimeter): 29.99 in. Hg (1015 hPa)
ob: KDRI 120715Z AUTO 00000KT 10SM CLR 26/26 A2999 RMK AO2 T02630255
cycle: 7

Station Type Date Time Source
KDRI TAF UTC NOAA

Error!

Example: see airport list